sensor_id;sensor_type;location;lat;lon;timestamp;pressure;altitude;pressure_sealevel;temperature;humidity
50430;BME280;36359;41.556;-8.418;2023-04-30T00:00:21;100680.91;;;17.96;100.00
50430;BME280;36359;41.556;-8.418;2023-04-30T00:02:47;100676.56;;;18.01;100.00
50430;BME280;36359;41.556;-8.418;2023-04-30T00:05:13;100677.59;;;18.15;100.00
50430;BME280;36359;41.556;-8.418;2023-04-30T00:07:38;100669.53;;;18.13;100.00
50430;BME280;36359;41.556;-8.418;2023-04-30T00:10:08;100667.16;;;18.25;100.00
50430;BME280;36359;41.556;-8.418;2023-04-30T00:12:34;100668.09;;;18.17;100.00
50430;BME280;36359;41.556;-8.418;2023-04-30T00:15:00;100650.38;;;18.20;100.00
50430;BME280;36359;41.556;-8.418;2023-04-30T00:17:26;100654.66;;;18.08;100.00
50430;BME280;36359;41.556;-8.418;2023-04-30T00:19:51;100650.53;;;17.97;100.00
50430;BME280;36359;41.556;-8.418;2023-04-30T00:22:17;100638.94;;;17.72;100.00
50430;BME280;36359;41.556;-8.418;2023-04-30T00:24:43;100631.19;;;17.61;100.00
50430;BME280;36359;41.556;-8.418;2023-04-30T00:27:28;100634.72;;;17.84;100.00
50430;BME280;36359;41.556;-8.418;2023-04-30T00:30:07;100628.81;;;17.73;100.00
50430;BME280;36359;41.556;-8.418;2023-04-30T00:32:32;100624.38;;;17.71;100.00
50430;BME280;36359;41.556;-8.418;2023-04-30T00:34:58;100627.19;;;17.48;100.00
50430;BME280;36359;41.556;-8.418;2023-04-30T00:37:24;100620.41;;;17.44;100.00
50430;BME280;36359;41.556;-8.418;2023-04-30T00:39:50;100631.63;;;17.49;100.00
50430;BME280;36359;41.556;-8.418;2023-04-30T00:42:15;100629.78;;;17.50;100.00
50430;BME280;36359;41.556;-8.418;2023-04-30T00:44:41;100638.84;;;17.51;100.00
50430;BME280;36359;41.556;-8.418;2023-04-30T00:47:07;100624.47;;;17.48;100.00
50430;BME280;36359;41.556;-8.418;2023-04-30T00:49:32;100627.56;;;17.45;100.00
50430;BME280;36359;41.556;-8.418;2023-04-30T00:51:58;100623.22;;;17.51;100.00
50430;BME280;36359;41.556;-8.418;2023-04-30T00:54:24;100634.13;;;17.59;100.00
50430;BME280;36359;41.556;-8.418;2023-04-30T00:56:50;100628.81;;;17.58;100.00
50430;BME280;36359;41.556;-8.418;2023-04-30T00:59:16;100626.66;;;17.68;100.00
50430;BME280;36359;41.556;-8.418;2023-04-30T01:01:42;100624.94;;;17.67;100.00
50430;BME280;36359;41.556;-8.418;2023-04-30T01:04:08;100617.75;;;17.66;100.00
50430;BME280;36359;41.556;-8.418;2023-04-30T01:06:35;100620.03;;;17.47;100.00
50430;BME280;36359;41.556;-8.418;2023-04-30T01:09:01;100612.72;;;17.40;100.00
50430;BME280;36359;41.556;-8.418;2023-04-30T01:11:39;100621.25;;;17.45;100.00
50430;BME280;36359;41.556;-8.418;2023-04-30T01:14:15;100620.84;;;17.33;100.00
50430;BME280;36359;41.556;-8.418;2023-04-30T01:16:49;100613.38;;;17.27;100.00
50430;BME280;36359;41.556;-8.418;2023-04-30T01:19:54;100618.19;;;17.25;100.00
50430;BME280;36359;41.556;-8.418;2023-04-30T01:28:01;100607.91;;;17.42;100.00
50430;BME280;36359;41.556;-8.418;2023-04-30T01:30:32;100607.69;;;17.43;100.00
50430;BME280;36359;41.556;-8.418;2023-04-30T01:32:58;100612.44;;;17.49;100.00
50430;BME280;36359;41.556;-8.418;2023-04-30T01:36:07;100607.72;;;17.58;100.00
50430;BME280;36359;41.556;-8.418;2023-04-30T01:41:18;100608.47;;;17.67;100.00
50430;BME280;36359;41.556;-8.418;2023-04-30T01:46:28;100605.72;;;17.67;100.00
50430;BME280;36359;41.556;-8.418;2023-04-30T01:51:52;100579.81;;;17.40;100.00
50430;BME280;36359;41.556;-8.418;2023-04-30T01:54:56;100581.50;;;17.56;100.00
50430;BME280;36359;41.556;-8.418;2023-04-30T01:57:44;100582.00;;;17.44;100.00
50430;BME280;36359;41.556;-8.418;2023-04-30T02:00:14;100573.09;;;17.42;100.00
50430;BME280;36359;41.556;-8.418;2023-04-30T02:02:42;100570.72;;;17.54;100.00
50430;BME280;36359;41.556;-8.418;2023-04-30T02:05:08;100577.66;;;17.65;100.00
50430;BME280;36359;41.556;-8.418;2023-04-30T02:07:40;100566.69;;;17.80;100.00
50430;BME280;36359;41.556;-8.418;2023-04-30T02:10:07;100568.44;;;17.73;100.00
50430;BME280;36359;41.556;-8.418;2023-04-30T02:12:33;100566.38;;;17.75;100.00
50430;BME280;36359;41.556;-8.418;2023-04-30T02:15:00;100562.88;;;17.66;100.00
50430;BME280;36359;41.556;-8.418;2023-04-30T02:17:26;100566.47;;;17.81;100.00
50430;BME280;36359;41.556;-8.418;2023-04-30T02:19:52;100569.88;;;17.83;100.00
50430;BME280;36359;41.556;-8.418;2023-04-30T02:22:17;100566.88;;;17.78;100.00
50430;BME280;36359;41.556;-8.418;2023-04-30T02:24:43;100564.47;;;17.60;100.00
50430;BME280;36359;41.556;-8.418;2023-04-30T02:27:09;100563.56;;;17.53;100.00
50430;BME280;36359;41.556;-8.418;2023-04-30T02:29:35;100562.38;;;17.77;100.00
50430;BME280;36359;41.556;-8.418;2023-04-30T02:32:01;100567.53;;;17.80;100.00
50430;BME280;36359;41.556;-8.418;2023-04-30T02:34:26;100555.03;;;17.78;100.00
50430;BME280;36359;41.556;-8.418;2023-04-30T02:36:52;100560.03;;;17.74;100.00
50430;BME280;36359;41.556;-8.418;2023-04-30T02:39:18;100556.78;;;17.70;100.00
50430;BME280;36359;41.556;-8.418;2023-04-30T02:41:44;100548.31;;;17.51;100.00
50430;BME280;36359;41.556;-8.418;2023-04-30T02:44:10;100546.22;;;17.53;100.00
50430;BME280;36359;41.556;-8.418;2023-04-30T02:46:36;100552.19;;;17.41;100.00
50430;BME280;36359;41.556;-8.418;2023-04-30T02:49:01;100549.81;;;17.68;100.00
50430;BME280;36359;41.556;-8.418;2023-04-30T02:51:27;100546.34;;;17.59;100.00
50430;BME280;36359;41.556;-8.418;2023-04-30T02:53:53;100545.00;;;17.55;100.00
50430;BME280;36359;41.556;-8.418;2023-04-30T02:59:04;100556.34;;;17.52;100.00
50430;BME280;36359;41.556;-8.418;2023-04-30T03:01:30;100557.38;;;17.66;100.00
50430;BME280;36359;41.556;-8.418;2023-04-30T03:03:55;100553.13;;;17.63;100.00
50430;BME280;36359;41.556;-8.418;2023-04-30T03:06:22;100539.09;;;17.73;100.00
50430;BME280;36359;41.556;-8.418;2023-04-30T03:08:48;100549.63;;;17.55;100.00
50430;BME280;36359;41.556;-8.418;2023-04-30T03:11:14;100540.53;;;17.69;100.00
50430;BME280;36359;41.556;-8.418;2023-04-30T03:13:40;100534.97;;;17.62;100.00
50430;BME280;36359;41.556;-8.418;2023-04-30T03:16:05;100544.13;;;17.55;100.00
50430;BME280;36359;41.556;-8.418;2023-04-30T03:18:31;100541.88;;;17.43;100.00
50430;BME280;36359;41.556;-8.418;2023-04-30T03:20:57;100550.31;;;17.42;100.00
50430;BME280;36359;41.556;-8.418;2023-04-30T03:23:25;100547.09;;;17.38;100.00
50430;BME280;36359;41.556;-8.418;2023-04-30T03:25:51;100547.81;;;17.47;100.00
50430;BME280;36359;41.556;-8.418;2023-04-30T03:28:17;100548.19;;;17.59;100.00
50430;BME280;36359;41.556;-8.418;2023-04-30T03:30:43;100542.06;;;17.57;100.00
50430;BME280;36359;41.556;-8.418;2023-04-30T03:33:08;100546.97;;;17.46;100.00
50430;BME280;36359;41.556;-8.418;2023-04-30T03:35:34;100542.84;;;17.21;100.00
50430;BME280;36359;41.556;-8.418;2023-04-30T03:38:01;100538.28;;;17.28;100.00
50430;BME280;36359;41.556;-8.418;2023-04-30T03:40:27;100529.56;;;17.10;100.00
50430;BME280;36359;41.556;-8.418;2023-04-30T03:42:52;100530.56;;;16.94;100.00
50430;BME280;36359;41.556;-8.418;2023-04-30T03:45:18;100523.03;;;16.96;100.00
50430;BME280;36359;41.556;-8.418;2023-04-30T03:47:44;100534.56;;;16.91;100.00
50430;BME280;36359;41.556;-8.418;2023-04-30T03:50:10;100537.88;;;17.01;100.00
50430;BME280;36359;41.556;-8.418;2023-04-30T03:52:36;100541.66;;;17.00;100.00
50430;BME280;36359;41.556;-8.418;2023-04-30T03:55:03;100539.84;;;16.70;100.00
50430;BME280;36359;41.556;-8.418;2023-04-30T03:57:29;100540.69;;;16.93;100.00
50430;BME280;36359;41.556;-8.418;2023-04-30T03:59:56;100543.00;;;17.05;100.00
50430;BME280;36359;41.556;-8.418;2023-04-30T04:02:21;100551.59;;;17.01;100.00
50430;BME280;36359;41.556;-8.418;2023-04-30T04:04:48;100546.78;;;17.03;100.00
50430;BME280;36359;41.556;-8.418;2023-04-30T04:07:14;100545.56;;;17.06;100.00
50430;BME280;36359;41.556;-8.418;2023-04-30T04:09:40;100551.94;;;16.84;100.00
50430;BME280;36359;41.556;-8.418;2023-04-30T04:12:06;100543.16;;;16.65;100.00
50430;BME280;36359;41.556;-8.418;2023-04-30T04:14:32;100543.81;;;16.90;100.00
50430;BME280;36359;41.556;-8.418;2023-04-30T04:16:58;100550.25;;;16.83;100.00
50430;BME280;36359;41.556;-8.418;2023-04-30T04:19:30;100555.59;;;16.76;100.00
50430;BME280;36359;41.556;-8.418;2023-04-30T04:21:56;100548.34;;;16.83;100.00
50430;BME280;36359;41.556;-8.418;2023-04-30T04:24:24;100544.75;;;16.60;100.00
50430;BME280;36359;41.556;-8.418;2023-04-30T04:26:50;100552.41;;;16.64;100.00
50430;BME280;36359;41.556;-8.418;2023-04-30T04:29:17;100553.88;;;16.52;100.00
50430;BME280;36359;41.556;-8.418;2023-04-30T04:31:43;100552.66;;;16.54;100.00
50430;BME280;36359;41.556;-8.418;2023-04-30T04:36:52;100541.75;;;16.46;100.00
50430;BME280;36359;41.556;-8.418;2023-04-30T04:39:18;100540.50;;;16.34;100.00
50430;BME280;36359;41.556;-8.418;2023-04-30T04:41:44;100548.91;;;16.32;100.00
50430;BME280;36359;41.556;-8.418;2023-04-30T04:44:10;100550.72;;;16.40;100.00
50430;BME280;36359;41.556;-8.418;2023-04-30T04:46:36;100550.94;;;16.07;100.00
50430;BME280;36359;41.556;-8.418;2023-04-30T04:49:06;100553.38;;;16.25;100.00
50430;BME280;36359;41.556;-8.418;2023-04-30T04:51:32;100552.16;;;16.28;100.00
50430;BME280;36359;41.556;-8.418;2023-04-30T04:53:58;100563.13;;;16.28;100.00
50430;BME280;36359;41.556;-8.418;2023-04-30T04:56:24;100547.53;;;16.28;100.00
50430;BME280;36359;41.556;-8.418;2023-04-30T04:58:49;100550.22;;;16.13;100.00
50430;BME280;36359;41.556;-8.418;2023-04-30T05:01:15;100551.97;;;16.52;100.00
50430;BME280;36359;41.556;-8.418;2023-04-30T05:03:44;100558.88;;;16.48;100.00
50430;BME280;36359;41.556;-8.418;2023-04-30T05:06:10;100552.53;;;16.48;100.00
50430;BME280;36359;41.556;-8.418;2023-04-30T05:08:36;100556.66;;;16.44;100.00
50430;BME280;36359;41.556;-8.418;2023-04-30T05:11:02;100548.16;;;16.39;100.00
50430;BME280;36359;41.556;-8.418;2023-04-30T05:13:28;100550.84;;;16.24;100.00
50430;BME280;36359;41.556;-8.418;2023-04-30T05:15:54;100540.59;;;16.18;100.00
50430;BME280;36359;41.556;-8.418;2023-04-30T05:18:20;100545.09;;;16.10;100.00
50430;BME280;36359;41.556;-8.418;2023-04-30T05:20:45;100539.56;;;16.19;100.00
50430;BME280;36359;41.556;-8.418;2023-04-30T05:23:11;100543.16;;;16.19;100.00
50430;BME280;36359;41.556;-8.418;2023-04-30T05:25:37;100547.53;;;16.28;100.00
50430;BME280;36359;41.556;-8.418;2023-04-30T05:28:02;100544.16;;;15.95;100.00
50430;BME280;36359;41.556;-8.418;2023-04-30T05:30:29;100551.53;;;15.95;100.00
50430;BME280;36359;41.556;-8.418;2023-04-30T05:32:56;100546.41;;;15.92;100.00
50430;BME280;36359;41.556;-8.418;2023-04-30T05:35:21;100544.69;;;15.90;100.00
50430;BME280;36359;41.556;-8.418;2023-04-30T05:37:47;100556.13;;;15.94;100.00
50430;BME280;36359;41.556;-8.418;2023-04-30T05:40:13;100571.66;;;16.02;100.00
50430;BME280;36359;41.556;-8.418;2023-04-30T05:42:40;100567.88;;;16.34;100.00
50430;BME280;36359;41.556;-8.418;2023-04-30T05:45:08;100564.97;;;16.35;100.00
50430;BME280;36359;41.556;-8.418;2023-04-30T05:47:35;100567.28;;;16.24;100.00
50430;BME280;36359;41.556;-8.418;2023-04-30T05:50:00;100566.03;;;16.03;100.00
50430;BME280;36359;41.556;-8.418;2023-04-30T05:52:26;100570.44;;;16.04;100.00
50430;BME280;36359;41.556;-8.418;2023-04-30T05:54:52;100570.25;;;15.66;100.00
50430;BME280;36359;41.556;-8.418;2023-04-30T05:57:18;100577.78;;;15.73;100.00
50430;BME280;36359;41.556;-8.418;2023-04-30T05:59:44;100577.03;;;15.87;100.00
50430;BME280;36359;41.556;-8.418;2023-04-30T06:02:10;100578.38;;;15.91;100.00
50430;BME280;36359;41.556;-8.418;2023-04-30T06:04:35;100577.81;;;16.04;100.00
50430;BME280;36359;41.556;-8.418;2023-04-30T06:07:01;100583.41;;;16.10;100.00
50430;BME280;36359;41.556;-8.418;2023-04-30T06:09:27;100589.25;;;16.39;100.00
50430;BME280;36359;41.556;-8.418;2023-04-30T06:11:52;100589.28;;;16.30;100.00
50430;BME280;36359;41.556;-8.418;2023-04-30T06:14:20;100592.81;;;16.39;100.00
50430;BME280;36359;41.556;-8.418;2023-04-30T06:16:47;100601.53;;;16.43;100.00
50430;BME280;36359;41.556;-8.418;2023-04-30T06:19:13;100595.84;;;16.21;100.00
50430;BME280;36359;41.556;-8.418;2023-04-30T06:21:39;100606.34;;;16.09;100.00
50430;BME280;36359;41.556;-8.418;2023-04-30T06:24:07;100608.63;;;16.29;100.00
50430;BME280;36359;41.556;-8.418;2023-04-30T06:26:33;100610.97;;;16.40;100.00
50430;BME280;36359;41.556;-8.418;2023-04-30T06:28:59;100612.38;;;16.36;100.00
50430;BME280;36359;41.556;-8.418;2023-04-30T06:31:25;100612.97;;;16.46;100.00
50430;BME280;36359;41.556;-8.418;2023-04-30T06:33:51;100613.34;;;16.43;100.00
50430;BME280;36359;41.556;-8.418;2023-04-30T06:36:17;100622.03;;;16.24;100.00
50430;BME280;36359;41.556;-8.418;2023-04-30T06:38:44;100623.25;;;16.67;100.00
50430;BME280;36359;41.556;-8.418;2023-04-30T06:41:11;100621.25;;;16.61;100.00
50430;BME280;36359;41.556;-8.418;2023-04-30T06:43:37;100619.97;;;16.80;100.00
50430;BME280;36359;41.556;-8.418;2023-04-30T06:46:02;100613.16;;;16.91;100.00
50430;BME280;36359;41.556;-8.418;2023-04-30T06:48:29;100615.16;;;16.97;100.00
50430;BME280;36359;41.556;-8.418;2023-04-30T06:50:56;100619.94;;;17.03;100.00
50430;BME280;36359;41.556;-8.418;2023-04-30T06:53:21;100612.66;;;17.10;100.00
50430;BME280;36359;41.556;-8.418;2023-04-30T06:55:47;100618.75;;;17.35;100.00
50430;BME280;36359;41.556;-8.418;2023-04-30T06:58:13;100614.91;;;17.30;100.00
50430;BME280;36359;41.556;-8.418;2023-04-30T07:00:39;100617.50;;;17.23;100.00
50430;BME280;36359;41.556;-8.418;2023-04-30T07:03:05;100617.63;;;17.15;100.00
50430;BME280;36359;41.556;-8.418;2023-04-30T07:05:31;100625.19;;;17.28;100.00
50430;BME280;36359;41.556;-8.418;2023-04-30T07:07:59;100625.88;;;17.44;100.00
50430;BME280;36359;41.556;-8.418;2023-04-30T07:10:25;100628.69;;;17.36;100.00
50430;BME280;36359;41.556;-8.418;2023-04-30T07:12:51;100629.97;;;17.11;100.00
50430;BME280;36359;41.556;-8.418;2023-04-30T07:15:17;100628.31;;;17.24;100.00
50430;BME280;36359;41.556;-8.418;2023-04-30T07:17:53;100622.28;;;17.59;100.00
50430;BME280;36359;41.556;-8.418;2023-04-30T07:20:19;100623.41;;;17.49;100.00
50430;BME280;36359;41.556;-8.418;2023-04-30T07:22:45;100626.75;;;17.60;100.00
50430;BME280;36359;41.556;-8.418;2023-04-30T07:25:12;100640.38;;;17.53;100.00
50430;BME280;36359;41.556;-8.418;2023-04-30T07:27:37;100642.03;;;17.39;100.00
50430;BME280;36359;41.556;-8.418;2023-04-30T07:30:05;100639.28;;;17.39;100.00
50430;BME280;36359;41.556;-8.418;2023-04-30T07:32:30;100642.72;;;17.41;100.00
50430;BME280;36359;41.556;-8.418;2023-04-30T07:34:56;100644.78;;;17.39;100.00
50430;BME280;36359;41.556;-8.418;2023-04-30T07:37:22;100642.34;;;17.44;100.00
50430;BME280;36359;41.556;-8.418;2023-04-30T07:39:48;100643.34;;;17.43;100.00
50430;BME280;36359;41.556;-8.418;2023-04-30T07:42:14;100644.03;;;17.45;100.00
50430;BME280;36359;41.556;-8.418;2023-04-30T07:44:39;100650.75;;;17.58;100.00
50430;BME280;36359;41.556;-8.418;2023-04-30T07:47:06;100654.09;;;17.68;100.00
50430;BME280;36359;41.556;-8.418;2023-04-30T07:49:32;100650.97;;;17.56;100.00
50430;BME280;36359;41.556;-8.418;2023-04-30T07:51:57;100658.31;;;17.70;100.00
50430;BME280;36359;41.556;-8.418;2023-04-30T07:54:25;100648.97;;;17.65;100.00
50430;BME280;36359;41.556;-8.418;2023-04-30T07:56:51;100653.88;;;17.55;100.00
50430;BME280;36359;41.556;-8.418;2023-04-30T07:59:16;100661.06;;;17.56;100.00
50430;BME280;36359;41.556;-8.418;2023-04-30T08:01:42;100653.50;;;17.58;100.00
50430;BME280;36359;41.556;-8.418;2023-04-30T08:04:08;100656.94;;;17.75;100.00
50430;BME280;36359;41.556;-8.418;2023-04-30T08:06:33;100665.00;;;17.91;100.00
50430;BME280;36359;41.556;-8.418;2023-04-30T08:08:59;100652.81;;;17.56;100.00
50430;BME280;36359;41.556;-8.418;2023-04-30T08:11:25;100654.38;;;17.88;100.00
50430;BME280;36359;41.556;-8.418;2023-04-30T08:13:51;100654.97;;;17.98;100.00
50430;BME280;36359;41.556;-8.418;2023-04-30T08:16:17;100657.78;;;18.05;100.00
50430;BME280;36359;41.556;-8.418;2023-04-30T08:18:43;100656.66;;;17.99;100.00
50430;BME280;36359;41.556;-8.418;2023-04-30T08:21:12;100652.13;;;18.06;100.00
50430;BME280;36359;41.556;-8.418;2023-04-30T08:23:38;100650.66;;;18.25;100.00
50430;BME280;36359;41.556;-8.418;2023-04-30T08:26:04;100658.16;;;18.53;99.95
50430;BME280;36359;41.556;-8.418;2023-04-30T08:28:29;100645.44;;;18.67;98.30
50430;BME280;36359;41.556;-8.418;2023-04-30T08:30:55;100651.75;;;18.46;100.00
50430;BME280;36359;41.556;-8.418;2023-04-30T08:33:21;100643.28;;;18.26;100.00
50430;BME280;36359;41.556;-8.418;2023-04-30T08:38:12;100643.94;;;18.64;98.39
50430;BME280;36359;41.556;-8.418;2023-04-30T08:40:38;100639.63;;;18.76;97.50
50430;BME280;36359;41.556;-8.418;2023-04-30T08:43:06;100633.75;;;18.79;97.46
50430;BME280;36359;41.556;-8.418;2023-04-30T08:45:33;100640.53;;;18.62;96.62
50430;BME280;36359;41.556;-8.418;2023-04-30T08:47:59;100639.59;;;18.55;96.41
50430;BME280;36359;41.556;-8.418;2023-04-30T08:50:26;100634.47;;;18.30;95.84
50430;BME280;36359;41.556;-8.418;2023-04-30T08:52:52;100633.41;;;18.31;96.36
50430;BME280;36359;41.556;-8.418;2023-04-30T08:55:18;100635.59;;;18.36;96.24
50430;BME280;36359;41.556;-8.418;2023-04-30T08:57:44;100636.91;;;18.40;95.57
50430;BME280;36359;41.556;-8.418;2023-04-30T09:00:10;100646.84;;;18.41;96.18
50430;BME280;36359;41.556;-8.418;2023-04-30T09:02:42;100641.56;;;18.61;95.73
50430;BME280;36359;41.556;-8.418;2023-04-30T09:05:12;100649.56;;;18.41;98.48
50430;BME280;36359;41.556;-8.418;2023-04-30T09:07:43;100645.09;;;18.55;96.21
50430;BME280;36359;41.556;-8.418;2023-04-30T09:10:15;100648.72;;;18.41;98.87
50430;BME280;36359;41.556;-8.418;2023-04-30T09:12:42;100648.78;;;18.62;97.29
50430;BME280;36359;41.556;-8.418;2023-04-30T09:15:11;100642.38;;;18.76;96.62
50430;BME280;36359;41.556;-8.418;2023-04-30T09:17:37;100642.22;;;18.63;96.73
50430;BME280;36359;41.556;-8.418;2023-04-30T09:20:15;100633.22;;;18.69;96.26
50430;BME280;36359;41.556;-8.418;2023-04-30T09:22:41;100630.63;;;18.82;95.81
50430;BME280;36359;41.556;-8.418;2023-04-30T09:25:08;100630.56;;;18.76;94.73
50430;BME280;36359;41.556;-8.418;2023-04-30T09:27:34;100627.16;;;18.95;93.25
50430;BME280;36359;41.556;-8.418;2023-04-30T09:30:00;100620.66;;;19.03;91.25
50430;BME280;36359;41.556;-8.418;2023-04-30T09:32:26;100624.97;;;18.91;94.34
50430;BME280;36359;41.556;-8.418;2023-04-30T09:34:51;100620.91;;;19.29;92.32
50430;BME280;36359;41.556;-8.418;2023-04-30T09:37:17;100613.28;;;19.03;92.16
50430;BME280;36359;41.556;-8.418;2023-04-30T09:39:52;100613.00;;;18.98;91.67
50430;BME280;36359;41.556;-8.418;2023-04-30T09:42:18;100607.56;;;19.05;89.80
50430;BME280;36359;41.556;-8.418;2023-04-30T09:44:44;100605.34;;;19.15;90.84
50430;BME280;36359;41.556;-8.418;2023-04-30T09:47:15;100608.31;;;19.20;91.38
50430;BME280;36359;41.556;-8.418;2023-04-30T09:49:42;100609.00;;;19.29;90.63
50430;BME280;36359;41.556;-8.418;2023-04-30T09:52:09;100612.38;;;19.24;91.23
50430;BME280;36359;41.556;-8.418;2023-04-30T09:54:36;100609.94;;;19.36;90.93
50430;BME280;36359;41.556;-8.418;2023-04-30T09:57:02;100610.13;;;19.35;90.63
50430;BME280;36359;41.556;-8.418;2023-04-30T09:59:32;100604.16;;;19.31;91.35
50430;BME280;36359;41.556;-8.418;2023-04-30T10:02:01;100596.28;;;19.21;91.29
50430;BME280;36359;41.556;-8.418;2023-04-30T10:04:29;100598.06;;;19.36;91.14
50430;BME280;36359;41.556;-8.418;2023-04-30T10:06:57;100587.84;;;19.58;90.19
50430;BME280;36359;41.556;-8.418;2023-04-30T10:09:29;100588.09;;;19.35;91.04
50430;BME280;36359;41.556;-8.418;2023-04-30T10:11:59;100582.25;;;19.16;91.57
50430;BME280;36359;41.556;-8.418;2023-04-30T10:14:28;100576.66;;;19.31;90.65
50430;BME280;36359;41.556;-8.418;2023-04-30T10:16:58;100585.97;;;19.30;91.85
50430;BME280;36359;41.556;-8.418;2023-04-30T10:19:36;100580.56;;;19.50;90.82
50430;BME280;36359;41.556;-8.418;2023-04-30T10:22:04;100588.06;;;19.56;89.15
50430;BME280;36359;41.556;-8.418;2023-04-30T10:24:30;100583.41;;;19.57;90.79
50430;BME280;36359;41.556;-8.418;2023-04-30T10:26:56;100583.66;;;19.34;87.34
50430;BME280;36359;41.556;-8.418;2023-04-30T10:29:22;100588.47;;;19.53;86.37
50430;BME280;36359;41.556;-8.418;2023-04-30T10:31:49;100587.13;;;19.42;87.23
50430;BME280;36359;41.556;-8.418;2023-04-30T10:37:34;100574.25;;;19.84;87.22
50430;BME280;36359;41.556;-8.418;2023-04-30T10:40:02;100559.09;;;20.08;85.69
50430;BME280;36359;41.556;-8.418;2023-04-30T10:42:29;100564.19;;;20.11;85.16
50430;BME280;36359;41.556;-8.418;2023-04-30T10:44:55;100566.41;;;20.49;83.48
50430;BME280;36359;41.556;-8.418;2023-04-30T10:47:27;100561.56;;;20.64;82.23
50430;BME280;36359;41.556;-8.418;2023-04-30T10:50:04;100550.91;;;20.35;81.23
50430;BME280;36359;41.556;-8.418;2023-04-30T10:52:33;100550.34;;;20.59;80.65
50430;BME280;36359;41.556;-8.418;2023-04-30T10:55:03;100552.03;;;20.60;78.81
50430;BME280;36359;41.556;-8.418;2023-04-30T10:57:29;100552.22;;;20.52;74.98
50430;BME280;36359;41.556;-8.418;2023-04-30T11:02:44;100540.81;;;20.75;76.52
50430;BME280;36359;41.556;-8.418;2023-04-30T11:05:16;100538.47;;;20.92;77.53
50430;BME280;36359;41.556;-8.418;2023-04-30T11:07:51;100541.44;;;21.10;76.91
50430;BME280;36359;41.556;-8.418;2023-04-30T11:10:22;100539.94;;;21.15;76.00
50430;BME280;36359;41.556;-8.418;2023-04-30T11:12:49;100521.91;;;21.12;76.51
50430;BME280;36359;41.556;-8.418;2023-04-30T11:15:28;100527.63;;;21.10;76.25
50430;BME280;36359;41.556;-8.418;2023-04-30T11:17:57;100521.69;;;21.27;76.43
50430;BME280;36359;41.556;-8.418;2023-04-30T11:20:26;100521.03;;;21.31;77.21
50430;BME280;36359;41.556;-8.418;2023-04-30T11:23:11;100512.97;;;21.23;78.32
50430;BME280;36359;41.556;-8.418;2023-04-30T11:25:41;100501.53;;;21.13;77.71
50430;BME280;36359;41.556;-8.418;2023-04-30T11:28:15;100496.19;;;21.38;77.92
50430;BME280;36359;41.556;-8.418;2023-04-30T11:33:16;100500.59;;;21.52;72.35
50430;BME280;36359;41.556;-8.418;2023-04-30T11:35:42;100495.34;;;21.38;71.80
50430;BME280;36359;41.556;-8.418;2023-04-30T11:38:08;100493.44;;;21.38;71.45
50430;BME280;36359;41.556;-8.418;2023-04-30T11:40:37;100488.66;;;21.72;69.67
50430;BME280;36359;41.556;-8.418;2023-04-30T11:43:03;100500.09;;;21.75;71.98
50430;BME280;36359;41.556;-8.418;2023-04-30T11:45:29;100485.56;;;21.93;72.06
50430;BME280;36359;41.556;-8.418;2023-04-30T11:47:55;100494.34;;;21.84;71.40
50430;BME280;36359;41.556;-8.418;2023-04-30T11:50:26;100488.50;;;21.98;69.61
50430;BME280;36359;41.556;-8.418;2023-04-30T11:52:58;100487.00;;;22.03;67.92
50430;BME280;36359;41.556;-8.418;2023-04-30T11:55:27;100485.94;;;22.04;64.33
50430;BME280;36359;41.556;-8.418;2023-04-30T11:57:55;100483.75;;;22.19;61.64
50430;BME280;36359;41.556;-8.418;2023-04-30T12:00:29;100480.00;;;22.63;62.98
50430;BME280;36359;41.556;-8.418;2023-04-30T12:02:58;100469.75;;;22.45;63.90
50430;BME280;36359;41.556;-8.418;2023-04-30T12:05:25;100479.50;;;22.73;66.01
50430;BME280;36359;41.556;-8.418;2023-04-30T12:08:02;100470.16;;;22.74;63.34
50430;BME280;36359;41.556;-8.418;2023-04-30T12:10:30;100470.38;;;22.98;63.39
50430;BME280;36359;41.556;-8.418;2023-04-30T12:12:56;100463.94;;;23.04;63.60
50430;BME280;36359;41.556;-8.418;2023-04-30T12:15:24;100468.63;;;23.22;61.71
50430;BME280;36359;41.556;-8.418;2023-04-30T12:17:57;100456.34;;;23.36;61.29
50430;BME280;36359;41.556;-8.418;2023-04-30T12:20:25;100450.84;;;23.29;61.37
50430;BME280;36359;41.556;-8.418;2023-04-30T12:22:52;100449.78;;;23.49;58.84
50430;BME280;36359;41.556;-8.418;2023-04-30T12:25:20;100439.88;;;23.60;60.16
50430;BME280;36359;41.556;-8.418;2023-04-30T12:27:48;100443.16;;;23.50;59.23
50430;BME280;36359;41.556;-8.418;2023-04-30T12:30:14;100439.72;;;23.54;61.03
50430;BME280;36359;41.556;-8.418;2023-04-30T12:32:44;100451.31;;;23.63;56.50
50430;BME280;36359;41.556;-8.418;2023-04-30T12:35:18;100439.41;;;23.63;58.03
50430;BME280;36359;41.556;-8.418;2023-04-30T12:37:50;100439.69;;;23.73;55.76
50430;BME280;36359;41.556;-8.418;2023-04-30T12:40:20;100440.56;;;23.37;55.23
50430;BME280;36359;41.556;-8.418;2023-04-30T12:42:46;100441.47;;;23.49;57.10
50430;BME280;36359;41.556;-8.418;2023-04-30T12:45:51;100443.09;;;23.38;54.10
50430;BME280;36359;41.556;-8.418;2023-04-30T12:48:21;100433.22;;;23.61;57.46
50430;BME280;36359;41.556;-8.418;2023-04-30T12:53:21;100437.88;;;24.27;52.86
50430;BME280;36359;41.556;-8.418;2023-04-30T12:56:10;100429.00;;;24.07;52.88
50430;BME280;36359;41.556;-8.418;2023-04-30T12:58:37;100427.34;;;24.29;53.81
50430;BME280;36359;41.556;-8.418;2023-04-30T13:01:03;100431.03;;;24.41;54.21
50430;BME280;36359;41.556;-8.418;2023-04-30T13:03:28;100436.38;;;24.66;50.55
50430;BME280;36359;41.556;-8.418;2023-04-30T13:05:54;100434.09;;;24.21;53.40
50430;BME280;36359;41.556;-8.418;2023-04-30T13:08:20;100422.16;;;24.75;51.63